sensor_id;sensor_type;location;lat;lon;timestamp;P1;durP1;ratioP1;P2;durP2;ratioP2
22138;SDS011;25815;52.582;13.408;2023-03-05T00:00:46;27.98;;;3.40;;
22138;SDS011;25815;52.582;13.408;2023-03-05T00:03:12;18.98;;;3.30;;
22138;SDS011;25815;52.582;13.408;2023-03-05T00:05:38;17.67;;;2.83;;
22138;SDS011;25815;52.582;13.408;2023-03-05T00:08:04;15.75;;;3.42;;
22138;SDS011;25815;52.582;13.408;2023-03-05T00:10:30;15.02;;;2.85;;
22138;SDS011;25815;52.582;13.408;2023-03-05T00:12:56;13.93;;;2.80;;
22138;SDS011;25815;52.582;13.408;2023-03-05T00:15:22;10.85;;;2.80;;
22138;SDS011;25815;52.582;13.408;2023-03-05T00:17:48;20.40;;;2.90;;
22138;SDS011;25815;52.582;13.408;2023-03-05T00:20:14;9.77;;;2.28;;
22138;SDS011;25815;52.582;13.408;2023-03-05T00:22:40;13.23;;;2.10;;
22138;SDS011;25815;52.582;13.408;2023-03-05T00:25:06;15.20;;;2.63;;
22138;SDS011;25815;52.582;13.408;2023-03-05T00:27:32;20.98;;;2.88;;
22138;SDS011;25815;52.582;13.408;2023-03-05T00:29:58;11.85;;;2.63;;
22138;SDS011;25815;52.582;13.408;2023-03-05T00:32:24;11.45;;;2.50;;
22138;SDS011;25815;52.582;13.408;2023-03-05T00:34:50;15.95;;;2.53;;
22138;SDS011;25815;52.582;13.408;2023-03-05T00:37:16;16.35;;;2.70;;
22138;SDS011;25815;52.582;13.408;2023-03-05T00:39:42;17.88;;;3.03;;
22138;SDS011;25815;52.582;13.408;2023-03-05T00:42:08;14.63;;;3.10;;
22138;SDS011;25815;52.582;13.408;2023-03-05T00:44:34;8.43;;;2.20;;
22138;SDS011;25815;52.582;13.408;2023-03-05T00:47:00;10.07;;;2.47;;
22138;SDS011;25815;52.582;13.408;2023-03-05T00:49:26;23.35;;;2.80;;
22138;SDS011;25815;52.582;13.408;2023-03-05T00:51:52;14.10;;;2.97;;
22138;SDS011;25815;52.582;13.408;2023-03-05T00:54:18;15.70;;;2.65;;
22138;SDS011;25815;52.582;13.408;2023-03-05T00:56:44;14.18;;;2.30;;
22138;SDS011;25815;52.582;13.408;2023-03-05T00:59:11;14.73;;;2.08;;
22138;SDS011;25815;52.582;13.408;2023-03-05T01:01:37;18.33;;;2.70;;
22138;SDS011;25815;52.582;13.408;2023-03-05T01:04:03;18.38;;;2.72;;
22138;SDS011;25815;52.582;13.408;2023-03-05T01:06:29;15.07;;;2.45;;
22138;SDS011;25815;52.582;13.408;2023-03-05T01:08:55;18.08;;;2.90;;
22138;SDS011;25815;52.582;13.408;2023-03-05T01:11:21;8.55;;;1.45;;
22138;SDS011;25815;52.582;13.408;2023-03-05T01:13:47;15.88;;;2.33;;
22138;SDS011;25815;52.582;13.408;2023-03-05T01:16:13;11.60;;;2.35;;
22138;SDS011;25815;52.582;13.408;2023-03-05T01:18:39;15.30;;;1.95;;
22138;SDS011;25815;52.582;13.408;2023-03-05T01:21:05;17.05;;;2.20;;
22138;SDS011;25815;52.582;13.408;2023-03-05T01:23:31;10.77;;;2.15;;
22138;SDS011;25815;52.582;13.408;2023-03-05T01:25:59;13.05;;;1.80;;
22138;SDS011;25815;52.582;13.408;2023-03-05T01:28:26;12.27;;;2.10;;
22138;SDS011;25815;52.582;13.408;2023-03-05T01:30:52;8.65;;;1.42;;
22138;SDS011;25815;52.582;13.408;2023-03-05T01:33:18;7.22;;;1.60;;
22138;SDS011;25815;52.582;13.408;2023-03-05T01:35:45;11.77;;;1.45;;
22138;SDS011;25815;52.582;13.408;2023-03-05T01:38:11;12.23;;;1.40;;
22138;SDS011;25815;52.582;13.408;2023-03-05T01:40:37;7.43;;;1.17;;
22138;SDS011;25815;52.582;13.408;2023-03-05T01:45:36;11.00;;;1.30;;
22138;SDS011;25815;52.582;13.408;2023-03-05T01:48:02;11.10;;;1.42;;
22138;SDS011;25815;52.582;13.408;2023-03-05T01:50:28;8.02;;;1.23;;
22138;SDS011;25815;52.582;13.408;2023-03-05T01:52:57;10.00;;;1.52;;
22138;SDS011;25815;52.582;13.408;2023-03-05T01:55:24;7.13;;;1.38;;
22138;SDS011;25815;52.582;13.408;2023-03-05T01:57:52;7.20;;;1.00;;
22138;SDS011;25815;52.582;13.408;2023-03-05T02:00:19;9.68;;;1.30;;
22138;SDS011;25815;52.582;13.408;2023-03-05T02:02:48;7.85;;;1.52;;
22138;SDS011;25815;52.582;13.408;2023-03-05T02:05:19;6.20;;;1.23;;
22138;SDS011;25815;52.582;13.408;2023-03-05T02:07:45;9.55;;;1.20;;
22138;SDS011;25815;52.582;13.408;2023-03-05T02:10:15;9.98;;;1.30;;
22138;SDS011;25815;52.582;13.408;2023-03-05T02:12:41;7.70;;;1.25;;
22138;SDS011;25815;52.582;13.408;2023-03-05T02:15:08;9.98;;;1.30;;
22138;SDS011;25815;52.582;13.408;2023-03-05T02:17:34;10.73;;;1.52;;
22138;SDS011;25815;52.582;13.408;2023-03-05T02:20:05;4.57;;;0.80;;
22138;SDS011;25815;52.582;13.408;2023-03-05T02:22:31;8.52;;;0.90;;
22138;SDS011;25815;52.582;13.408;2023-03-05T02:24:57;5.55;;;1.17;;
22138;SDS011;25815;52.582;13.408;2023-03-05T02:27:24;12.30;;;1.55;;
22138;SDS011;25815;52.582;13.408;2023-03-05T02:29:58;5.45;;;1.08;;
22138;SDS011;25815;52.582;13.408;2023-03-05T02:32:24;8.52;;;1.23;;
22138;SDS011;25815;52.582;13.408;2023-03-05T02:34:50;7.75;;;1.20;;
22138;SDS011;25815;52.582;13.408;2023-03-05T02:37:16;7.28;;;1.15;;
22138;SDS011;25815;52.582;13.408;2023-03-05T02:39:42;7.30;;;1.20;;
22138;SDS011;25815;52.582;13.408;2023-03-05T02:42:08;7.45;;;1.33;;
22138;SDS011;25815;52.582;13.408;2023-03-05T02:44:34;6.50;;;1.10;;
22138;SDS011;25815;52.582;13.408;2023-03-05T02:47:00;5.72;;;0.90;;
22138;SDS011;25815;52.582;13.408;2023-03-05T02:49:26;8.13;;;1.08;;
22138;SDS011;25815;52.582;13.408;2023-03-05T02:51:52;9.25;;;1.17;;
22138;SDS011;25815;52.582;13.408;2023-03-05T02:54:18;7.32;;;1.20;;
22138;SDS011;25815;52.582;13.408;2023-03-05T02:56:44;14.23;;;1.38;;
22138;SDS011;25815;52.582;13.408;2023-03-05T02:59:10;7.47;;;1.02;;
22138;SDS011;25815;52.582;13.408;2023-03-05T03:01:36;5.95;;;1.10;;
22138;SDS011;25815;52.582;13.408;2023-03-05T03:04:02;8.90;;;1.10;;
22138;SDS011;25815;52.582;13.408;2023-03-05T03:06:28;8.30;;;1.65;;
22138;SDS011;25815;52.582;13.408;2023-03-05T03:08:54;8.63;;;1.10;;
22138;SDS011;25815;52.582;13.408;2023-03-05T03:11:19;6.68;;;1.10;;
22138;SDS011;25815;52.582;13.408;2023-03-05T03:13:45;9.65;;;1.48;;
22138;SDS011;25815;52.582;13.408;2023-03-05T03:16:13;9.02;;;0.98;;
22138;SDS011;25815;52.582;13.408;2023-03-05T03:18:39;5.88;;;1.20;;
22138;SDS011;25815;52.582;13.408;2023-03-05T03:21:05;9.25;;;1.33;;
22138;SDS011;25815;52.582;13.408;2023-03-05T03:23:31;6.63;;;1.15;;
22138;SDS011;25815;52.582;13.408;2023-03-05T03:25:58;8.38;;;1.15;;
22138;SDS011;25815;52.582;13.408;2023-03-05T03:28:24;11.90;;;1.40;;
22138;SDS011;25815;52.582;13.408;2023-03-05T03:30:50;8.02;;;1.63;;
22138;SDS011;25815;52.582;13.408;2023-03-05T03:33:16;10.23;;;1.45;;
22138;SDS011;25815;52.582;13.408;2023-03-05T03:35:43;6.20;;;1.20;;
22138;SDS011;25815;52.582;13.408;2023-03-05T03:38:10;8.15;;;1.15;;
22138;SDS011;25815;52.582;13.408;2023-03-05T03:40:37;6.70;;;0.85;;
22138;SDS011;25815;52.582;13.408;2023-03-05T03:43:03;5.82;;;0.90;;
22138;SDS011;25815;52.582;13.408;2023-03-05T03:45:29;9.43;;;1.17;;
22138;SDS011;25815;52.582;13.408;2023-03-05T03:47:55;7.28;;;1.02;;
22138;SDS011;25815;52.582;13.408;2023-03-05T03:50:21;4.05;;;1.00;;
22138;SDS011;25815;52.582;13.408;2023-03-05T03:52:49;7.82;;;1.00;;
22138;SDS011;25815;52.582;13.408;2023-03-05T03:55:14;5.85;;;1.27;;
22138;SDS011;25815;52.582;13.408;2023-03-05T03:57:40;11.85;;;1.20;;
22138;SDS011;25815;52.582;13.408;2023-03-05T04:00:07;6.63;;;1.23;;
22138;SDS011;25815;52.582;13.408;2023-03-05T04:02:35;9.30;;;1.80;;
22138;SDS011;25815;52.582;13.408;2023-03-05T04:05:01;7.57;;;1.48;;
22138;SDS011;25815;52.582;13.408;2023-03-05T04:07:27;3.33;;;0.73;;
22138;SDS011;25815;52.582;13.408;2023-03-05T04:09:53;7.15;;;1.27;;
22138;SDS011;25815;52.582;13.408;2023-03-05T04:12:19;13.50;;;1.42;;
22138;SDS011;25815;52.582;13.408;2023-03-05T04:14:46;8.05;;;1.45;;
22138;SDS011;25815;52.582;13.408;2023-03-05T04:17:12;8.73;;;1.25;;
22138;SDS011;25815;52.582;13.408;2023-03-05T04:19:38;7.07;;;1.35;;
22138;SDS011;25815;52.582;13.408;2023-03-05T04:22:05;5.40;;;1.33;;
22138;SDS011;25815;52.582;13.408;2023-03-05T04:24:31;8.07;;;0.93;;
22138;SDS011;25815;52.582;13.408;2023-03-05T04:26:57;6.85;;;1.08;;
22138;SDS011;25815;52.582;13.408;2023-03-05T04:29:23;6.45;;;1.38;;
22138;SDS011;25815;52.582;13.408;2023-03-05T04:31:48;11.45;;;1.65;;
22138;SDS011;25815;52.582;13.408;2023-03-05T04:34:14;6.90;;;0.90;;
22138;SDS011;25815;52.582;13.408;2023-03-05T04:36:40;7.70;;;1.25;;
22138;SDS011;25815;52.582;13.408;2023-03-05T04:39:06;9.75;;;1.30;;
22138;SDS011;25815;52.582;13.408;2023-03-05T04:41:32;7.03;;;0.93;;
22138;SDS011;25815;52.582;13.408;2023-03-05T04:43:58;9.60;;;1.17;;
22138;SDS011;25815;52.582;13.408;2023-03-05T04:46:24;3.45;;;0.80;;
22138;SDS011;25815;52.582;13.408;2023-03-05T04:48:50;9.65;;;1.25;;
22138;SDS011;25815;52.582;13.408;2023-03-05T04:51:16;6.22;;;1.00;;
22138;SDS011;25815;52.582;13.408;2023-03-05T04:53:42;6.68;;;1.13;;
22138;SDS011;25815;52.582;13.408;2023-03-05T04:56:08;7.45;;;1.13;;
22138;SDS011;25815;52.582;13.408;2023-03-05T04:58:34;9.85;;;1.25;;
22138;SDS011;25815;52.582;13.408;2023-03-05T05:01:00;8.52;;;1.50;;
22138;SDS011;25815;52.582;13.408;2023-03-05T05:03:27;3.65;;;1.08;;
22138;SDS011;25815;52.582;13.408;2023-03-05T05:05:53;7.20;;;1.10;;
22138;SDS011;25815;52.582;13.408;2023-03-05T05:08:20;7.03;;;1.10;;
22138;SDS011;25815;52.582;13.408;2023-03-05T05:10:53;8.68;;;1.60;;
22138;SDS011;25815;52.582;13.408;2023-03-05T05:13:19;5.40;;;1.20;;
22138;SDS011;25815;52.582;13.408;2023-03-05T05:15:45;5.30;;;0.98;;
22138;SDS011;25815;52.582;13.408;2023-03-05T05:18:11;9.43;;;1.58;;
22138;SDS011;25815;52.582;13.408;2023-03-05T05:20:37;4.05;;;0.82;;
22138;SDS011;25815;52.582;13.408;2023-03-05T05:23:03;5.47;;;1.00;;
22138;SDS011;25815;52.582;13.408;2023-03-05T05:25:29;6.57;;;0.93;;
22138;SDS011;25815;52.582;13.408;2023-03-05T05:27:55;7.47;;;0.90;;
22138;SDS011;25815;52.582;13.408;2023-03-05T05:30:21;6.90;;;1.00;;
22138;SDS011;25815;52.582;13.408;2023-03-05T05:32:47;7.57;;;0.90;;
22138;SDS011;25815;52.582;13.408;2023-03-05T05:35:13;7.35;;;1.17;;
22138;SDS011;25815;52.582;13.408;2023-03-05T05:37:39;9.10;;;1.00;;
22138;SDS011;25815;52.582;13.408;2023-03-05T05:40:05;8.52;;;1.38;;
22138;SDS011;25815;52.582;13.408;2023-03-05T05:42:32;6.70;;;1.15;;
22138;SDS011;25815;52.582;13.408;2023-03-05T05:44:58;3.60;;;1.10;;
22138;SDS011;25815;52.582;13.408;2023-03-05T05:47:24;9.75;;;1.42;;
22138;SDS011;25815;52.582;13.408;2023-03-05T05:49:50;5.50;;;1.30;;
22138;SDS011;25815;52.582;13.408;2023-03-05T05:52:16;7.22;;;1.30;;
22138;SDS011;25815;52.582;13.408;2023-03-05T05:54:42;8.20;;;1.35;;
22138;SDS011;25815;52.582;13.408;2023-03-05T05:57:08;8.38;;;1.13;;
22138;SDS011;25815;52.582;13.408;2023-03-05T05:59:34;5.88;;;1.13;;
22138;SDS011;25815;52.582;13.408;2023-03-05T06:02:01;7.88;;;1.50;;
22138;SDS011;25815;52.582;13.408;2023-03-05T06:04:27;7.28;;;1.58;;
22138;SDS011;25815;52.582;13.408;2023-03-05T06:06:53;6.45;;;0.95;;
22138;SDS011;25815;52.582;13.408;2023-03-05T06:09:19;3.67;;;1.15;;
22138;SDS011;25815;52.582;13.408;2023-03-05T06:11:45;6.18;;;1.13;;
22138;SDS011;25815;52.582;13.408;2023-03-05T06:14:11;6.10;;;1.15;;
22138;SDS011;25815;52.582;13.408;2023-03-05T06:16:38;7.97;;;1.40;;
22138;SDS011;25815;52.582;13.408;2023-03-05T06:19:04;8.75;;;1.23;;
22138;SDS011;25815;52.582;13.408;2023-03-05T06:21:31;7.53;;;1.48;;
22138;SDS011;25815;52.582;13.408;2023-03-05T06:23:58;7.03;;;1.83;;
22138;SDS011;25815;52.582;13.408;2023-03-05T06:26:24;4.47;;;1.02;;
22138;SDS011;25815;52.582;13.408;2023-03-05T06:28:50;4.57;;;1.10;;
22138;SDS011;25815;52.582;13.408;2023-03-05T06:31:17;6.78;;;1.33;;
22138;SDS011;25815;52.582;13.408;2023-03-05T06:33:45;7.68;;;1.42;;
22138;SDS011;25815;52.582;13.408;2023-03-05T06:36:12;7.93;;;1.08;;
22138;SDS011;25815;52.582;13.408;2023-03-05T06:38:38;4.82;;;1.33;;
22138;SDS011;25815;52.582;13.408;2023-03-05T06:41:14;7.18;;;1.30;;
22138;SDS011;25815;52.582;13.408;2023-03-05T06:43:41;7.38;;;1.10;;
22138;SDS011;25815;52.582;13.408;2023-03-05T06:46:10;7.80;;;1.30;;
22138;SDS011;25815;52.582;13.408;2023-03-05T06:48:36;8.07;;;1.30;;
22138;SDS011;25815;52.582;13.408;2023-03-05T06:51:03;5.85;;;1.20;;
22138;SDS011;25815;52.582;13.408;2023-03-05T06:53:29;7.47;;;1.20;;
22138;SDS011;25815;52.582;13.408;2023-03-05T06:55:55;5.53;;;1.25;;
22138;SDS011;25815;52.582;13.408;2023-03-05T06:58:21;11.00;;;1.30;;
22138;SDS011;25815;52.582;13.408;2023-03-05T07:00:47;5.85;;;1.30;;
22138;SDS011;25815;52.582;13.408;2023-03-05T07:03:13;6.72;;;1.05;;
22138;SDS011;25815;52.582;13.408;2023-03-05T07:05:40;3.70;;;1.00;;
22138;SDS011;25815;52.582;13.408;2023-03-05T07:08:06;6.93;;;1.00;;
22138;SDS011;25815;52.582;13.408;2023-03-05T07:10:36;5.10;;;1.05;;
22138;SDS011;25815;52.582;13.408;2023-03-05T07:13:02;4.75;;;1.10;;
22138;SDS011;25815;52.582;13.408;2023-03-05T07:15:28;6.20;;;1.20;;
22138;SDS011;25815;52.582;13.408;2023-03-05T07:17:54;5.63;;;1.00;;
22138;SDS011;25815;52.582;13.408;2023-03-05T07:20:20;7.70;;;1.13;;
22138;SDS011;25815;52.582;13.408;2023-03-05T07:22:46;8.73;;;1.00;;
22138;SDS011;25815;52.582;13.408;2023-03-05T07:25:12;5.85;;;1.02;;
22138;SDS011;25815;52.582;13.408;2023-03-05T07:27:43;7.85;;;1.15;;
22138;SDS011;25815;52.582;13.408;2023-03-05T07:30:09;5.20;;;1.27;;
22138;SDS011;25815;52.582;13.408;2023-03-05T07:32:35;5.35;;;0.93;;
22138;SDS011;25815;52.582;13.408;2023-03-05T07:35:01;6.55;;;1.10;;
22138;SDS011;25815;52.582;13.408;2023-03-05T07:37:27;6.07;;;1.10;;
22138;SDS011;25815;52.582;13.408;2023-03-05T07:39:53;5.40;;;1.10;;
22138;SDS011;25815;52.582;13.408;2023-03-05T07:42:19;5.90;;;0.75;;
22138;SDS011;25815;52.582;13.408;2023-03-05T07:44:45;4.63;;;0.90;;
22138;SDS011;25815;52.582;13.408;2023-03-05T07:47:11;10.23;;;1.20;;
22138;SDS011;25815;52.582;13.408;2023-03-05T07:49:36;7.20;;;1.00;;
22138;SDS011;25815;52.582;13.408;2023-03-05T07:52:05;5.90;;;1.00;;
22138;SDS011;25815;52.582;13.408;2023-03-05T07:54:31;3.83;;;1.00;;
22138;SDS011;25815;52.582;13.408;2023-03-05T07:57:01;8.18;;;1.10;;
22138;SDS011;25815;52.582;13.408;2023-03-05T07:59:28;4.22;;;1.00;;
22138;SDS011;25815;52.582;13.408;2023-03-05T08:01:54;5.88;;;0.90;;
22138;SDS011;25815;52.582;13.408;2023-03-05T08:04:19;5.28;;;0.85;;
22138;SDS011;25815;52.582;13.408;2023-03-05T08:06:45;7.90;;;0.93;;
22138;SDS011;25815;52.582;13.408;2023-03-05T08:09:13;6.03;;;1.65;;
22138;SDS011;25815;52.582;13.408;2023-03-05T08:11:39;5.05;;;1.00;;
22138;SDS011;25815;52.582;13.408;2023-03-05T08:14:05;13.93;;;1.20;;
22138;SDS011;25815;52.582;13.408;2023-03-05T08:16:31;8.55;;;1.40;;
22138;SDS011;25815;52.582;13.408;2023-03-05T08:18:57;5.72;;;1.15;;
22138;SDS011;25815;52.582;13.408;2023-03-05T08:21:24;5.32;;;0.90;;
22138;SDS011;25815;52.582;13.408;2023-03-05T08:23:51;5.93;;;1.08;;
22138;SDS011;25815;52.582;13.408;2023-03-05T08:26:18;7.00;;;1.40;;
22138;SDS011;25815;52.582;13.408;2023-03-05T08:28:45;8.77;;;1.40;;
22138;SDS011;25815;52.582;13.408;2023-03-05T08:31:11;6.35;;;1.25;;
22138;SDS011;25815;52.582;13.408;2023-03-05T08:33:38;5.57;;;1.08;;
22138;SDS011;25815;52.582;13.408;2023-03-05T08:36:04;3.92;;;1.08;;
22138;SDS011;25815;52.582;13.408;2023-03-05T08:38:30;6.57;;;1.00;;
22138;SDS011;25815;52.582;13.408;2023-03-05T08:40:56;6.45;;;1.10;;
22138;SDS011;25815;52.582;13.408;2023-03-05T08:43:22;5.10;;;1.45;;
22138;SDS011;25815;52.582;13.408;2023-03-05T08:45:48;6.18;;;0.95;;
22138;SDS011;25815;52.582;13.408;2023-03-05T08:48:15;8.70;;;1.08;;
22138;SDS011;25815;52.582;13.408;2023-03-05T08:50:41;6.03;;;1.25;;
22138;SDS011;25815;52.582;13.408;2023-03-05T08:53:07;4.53;;;1.15;;
22138;SDS011;25815;52.582;13.408;2023-03-05T08:55:33;2.55;;;0.90;;
22138;SDS011;25815;52.582;13.408;2023-03-05T08:57:59;5.50;;;0.93;;
22138;SDS011;25815;52.582;13.408;2023-03-05T09:00:25;5.15;;;1.08;;
22138;SDS011;25815;52.582;13.408;2023-03-05T09:02:50;5.72;;;0.80;;
22138;SDS011;25815;52.582;13.408;2023-03-05T09:05:16;8.10;;;2.53;;
22138;SDS011;25815;52.582;13.408;2023-03-05T09:07:43;4.13;;;0.82;;
22138;SDS011;25815;52.582;13.408;2023-03-05T09:10:09;5.82;;;1.30;;
22138;SDS011;25815;52.582;13.408;2023-03-05T09:12:37;6.95;;;1.60;;
22138;SDS011;25815;52.582;13.408;2023-03-05T09:15:06;7.28;;;0.90;;
22138;SDS011;25815;52.582;13.408;2023-03-05T09:17:33;6.28;;;0.80;;
22138;SDS011;25815;52.582;13.408;2023-03-05T09:19:59;6.05;;;0.85;;
22138;SDS011;25815;52.582;13.408;2023-03-05T09:22:25;4.47;;;0.95;;
22138;SDS011;25815;52.582;13.408;2023-03-05T09:24:51;6.22;;;1.30;;
22138;SDS011;25815;52.582;13.408;2023-03-05T09:27:17;3.72;;;0.88;;
22138;SDS011;25815;52.582;13.408;2023-03-05T09:29:43;7.88;;;1.10;;
22138;SDS011;25815;52.582;13.408;2023-03-05T09:32:09;4.32;;;0.80;;
22138;SDS011;25815;52.582;13.408;2023-03-05T09:34:35;7.55;;;1.02;;
22138;SDS011;25815;52.582;13.408;2023-03-05T09:37:01;4.55;;;0.90;;
22138;SDS011;25815;52.582;13.408;2023-03-05T09:39:27;4.88;;;0.85;;
22138;SDS011;25815;52.582;13.408;2023-03-05T09:47:54;4.82;;;1.17;;
22138;SDS011;25815;52.582;13.408;2023-03-05T09:50:17;4.63;;;0.80;;
22138;SDS011;25815;52.582;13.408;2023-03-05T09:52:52;4.85;;;1.00;;
22138;SDS011;25815;52.582;13.408;2023-03-05T09:55:22;4.15;;;0.90;;
22138;SDS011;25815;52.582;13.408;2023-03-05T09:57:51;6.20;;;0.93;;
22138;SDS011;25815;52.582;13.408;2023-03-05T10:03:04;7.10;;;1.10;;
22138;SDS011;25815;52.582;13.408;2023-03-05T10:05:44;6.32;;;1.20;;
22138;SDS011;25815;52.582;13.408;2023-03-05T10:08:13;2.38;;;0.70;;
22138;SDS011;25815;52.582;13.408;2023-03-05T10:10:42;5.25;;;0.90;;
22138;SDS011;25815;52.582;13.408;2023-03-05T10:13:17;6.75;;;1.25;;
22138;SDS011;25815;52.582;13.408;2023-03-05T10:15:52;4.95;;;1.30;;
22138;SDS011;25815;52.582;13.408;2023-03-05T10:18:26;3.33;;;1.25;;
22138;SDS011;25815;52.582;13.408;2023-03-05T10:24:08;3.30;;;1.08;;
22138;SDS011;25815;52.582;13.408;2023-03-05T10:26:17;3.70;;;1.00;;
22138;SDS011;25815;52.582;13.408;2023-03-05T10:31:36;3.17;;;0.75;;
22138;SDS011;25815;52.582;13.408;2023-03-05T10:34:09;3.97;;;0.80;;
22138;SDS011;25815;52.582;13.408;2023-03-05T10:44:02;6.93;;;1.60;;
22138;SDS011;25815;52.582;13.408;2023-03-05T10:46:31;4.22;;;1.20;;
22138;SDS011;25815;52.582;13.408;2023-03-05T10:49:02;3.85;;;1.27;;
22138;SDS011;25815;52.582;13.408;2023-03-05T10:56:37;6.70;;;1.30;;
22138;SDS011;25815;52.582;13.408;2023-03-05T10:59:02;4.75;;;1.27;;
22138;SDS011;25815;52.582;13.408;2023-03-05T11:01:29;7.45;;;1.90;;
22138;SDS011;25815;52.582;13.408;2023-03-05T11:03:57;4.85;;;1.15;;
22138;SDS011;25815;52.582;13.408;2023-03-05T11:06:31;5.07;;;1.58;;
22138;SDS011;25815;52.582;13.408;2023-03-05T11:11:43;2.25;;;1.00;;
22138;SDS011;25815;52.582;13.408;2023-03-05T11:14:25;6.05;;;1.13;;
22138;SDS011;25815;52.582;13.408;2023-03-05T11:16:54;5.25;;;1.20;;
22138;SDS011;25815;52.582;13.408;2023-03-05T11:19:28;3.08;;;0.90;;
22138;SDS011;25815;52.582;13.408;2023-03-05T11:22:04;5.35;;;1.15;;
22138;SDS011;25815;52.582;13.408;2023-03-05T11:24:30;3.85;;;0.80;;
22138;SDS011;25815;52.582;13.408;2023-03-05T11:26:57;2.65;;;0.98;;
22138;SDS011;25815;52.582;13.408;2023-03-05T11:29:24;9.35;;;1.67;;
22138;SDS011;25815;52.582;13.408;2023-03-05T11:31:51;5.20;;;1.42;;
22138;SDS011;25815;52.582;13.408;2023-03-05T11:36:58;5.35;;;1.55;;
22138;SDS011;25815;52.582;13.408;2023-03-05T11:39:27;2.40;;;1.25;;
22138;SDS011;25815;52.582;13.408;2023-03-05T11:41:58;5.78;;;1.00;;
22138;SDS011;25815;52.582;13.408;2023-03-05T11:47:38;7.60;;;1.15;;
22138;SDS011;25815;52.582;13.408;2023-03-05T11:49:44;8.40;;;1.20;;
22138;SDS011;25815;52.582;13.408;2023-03-05T11:52:21;7.25;;;1.52;;
22138;SDS011;25815;52.582;13.408;2023-03-05T11:54:52;6.75;;;1.10;;
22138;SDS011;25815;52.582;13.408;2023-03-05T11:57:19;3.55;;;1.02;;
22138;SDS011;25815;52.582;13.408;2023-03-05T11:59:46;7.10;;;1.27;;
22138;SDS011;25815;52.582;13.408;2023-03-05T12:02:15;4.90;;;1.40;;
22138;SDS011;25815;52.582;13.408;2023-03-05T12:04:42;4.60;;;0.90;;
22138;SDS011;25815;52.582;13.408;2023-03-05T12:07:08;6.30;;;1.02;;
22138;SDS011;25815;52.582;13.408;2023-03-05T12:12:11;2.38;;;0.88;;
22138;SDS011;25815;52.582;13.408;2023-03-05T12:14:42;8.00;;;1.33;;
22138;SDS011;25815;52.582;13.408;2023-03-05T12:22:02;5.45;;;1.00;;
22138;SDS011;25815;52.582;13.408;2023-03-05T12:24:34;2.28;;;0.90;;
22138;SDS011;25815;52.582;13.408;2023-03-05T12:32:48;9.38;;;1.10;;
22138;SDS011;25815;52.582;13.408;2023-03-05T12:40:18;3.67;;;1.25;;
22138;SDS011;25815;52.582;13.408;2023-03-05T12:47:45;4.15;;;1.23;;
22138;SDS011;25815;52.582;13.408;2023-03-05T12:52:59;7.28;;;1.58;;
22138;SDS011;25815;52.582;13.408;2023-03-05T12:55:34;3.97;;;1.20;;
22138;SDS011;25815;52.582;13.408;2023-03-05T12:58:07;6.57;;;1.08;;
22138;SDS011;25815;52.582;13.408;2023-03-05T13:00:38;4.07;;;1.10;;
22138;SDS011;25815;52.582;13.408;2023-03-05T13:03:07;5.70;;;1.33;;
22138;SDS011;25815;52.582;13.408;2023-03-05T13:05:35;4.63;;;1.33;;
22138;SDS011;25815;52.582;13.408;2023-03-05T13:08:12;2.97;;;0.88;;
22138;SDS011;25815;52.582;13.408;2023-03-05T13:10:48;6.97;;;1.85;;
22138;SDS011;25815;52.582;13.408;2023-03-05T13:13:14;3.83;;;0.93;;
22138;SDS011;25815;52.582;13.408;2023-03-05T13:15:43;4.95;;;1.00;;
22138;SDS011;25815;52.582;13.408;2023-03-05T13:18:19;3.17;;;0.73;;
22138;SDS011;25815;52.582;13.408;2023-03-05T13:20:45;4.93;;;0.98;;
22138;SDS011;25815;52.582;13.408;2023-03-05T13:28:12;2.00;;;0.60;;
22138;SDS011;25815;52.582;13.408;2023-03-05T13:30:41;3.88;;;0.70;;
22138;SDS011;25815;52.582;13.408;2023-03-05T13:33:12;2.80;;;0.43;;
22138;SDS011;25815;52.582;13.408;2023-03-05T13:35:43;4.35;;;0.80;;
22138;SDS011;25815;52.582;13.408;2023-03-05T13:38:19;2.45;;;0.70;;
22138;SDS011;25815;52.582;13.408;2023-03-05T13:40:59;0.82;;;0.60;;
22138;SDS011;25815;52.582;13.408;2023-03-05T13:43:25;3.03;;;0.73;;
22138;SDS011;25815;52.582;13.408;2023-03-05T13:45:52;1.95;;;0.40;;
22138;SDS011;25815;52.582;13.408;2023-03-05T13:48:18;3.88;;;0.50;;
22138;SDS011;25815;52.582;13.408;2023-03-05T13:50:44;3.55;;;0.50;;
22138;SDS011;25815;52.582;13.408;2023-03-05T13:55:39;5.88;;;0.70;;
22138;SDS011;25815;52.582;13.408;2023-03-05T13:58:38;4.45;;;0.98;;
22138;SDS011;25815;52.582;13.408;2023-03-05T14:01:01;2.22;;;0.50;;
22138;SDS011;25815;52.582;13.408;2023-03-05T14:03:27;3.60;;;0.60;;
22138;SDS011;25815;52.582;13.408;2023-03-05T14:05:54;3.60;;;0.88;;
22138;SDS011;25815;52.582;13.408;2023-03-05T14:08:24;5.40;;;0.75;;
22138;SDS011;25815;52.582;13.408;2023-03-05T14:10:51;3.45;;;0.75;;
22138;SDS011;25815;52.582;13.408;2023-03-05T14:13:18;2.88;;;0.70;;
22138;SDS011;25815;52.582;13.408;2023-03-05T14:18:29;3.78;;;0.90;;
22138;SDS011;25815;52.582;13.408;2023-03-05T14:20:57;7.15;;;1.13;;
22138;SDS011;25815;52.582;13.408;2023-03-05T14:23:24;5.28;;;0.68;;
22138;SDS011;25815;52.582;13.408;2023-03-05T14:25:51;4.95;;;0.88;;
22138;SDS011;25815;52.582;13.408;2023-03-05T14:30:44;2.58;;;0.57;;
22138;SDS011;25815;52.582;13.408;2023-03-05T14:33:10;4.13;;;0.80;;
22138;SDS011;25815;52.582;13.408;2023-03-05T14:35:36;3.05;;;0.70;;
22138;SDS011;25815;52.582;13.408;2023-03-05T14:38:02;4.72;;;0.90;;
22138;SDS011;25815;52.582;13.408;2023-03-05T14:40:32;2.45;;;0.80;;
22138;SDS011;25815;52.582;13.408;2023-03-05T14:42:58;9.15;;;1.00;;
22138;SDS011;25815;52.582;13.408;2023-03-05T14:45:36;5.38;;;0.93;;
22138;SDS011;25815;52.582;13.408;2023-03-05T14:48:03;3.25;;;0.93;;
22138;SDS011;25815;52.582;13.408;2023-03-05T14:50:31;2.88;;;0.80;;
22138;SDS011;25815;52.582;13.408;2023-03-05T14:52:58;4.95;;;1.00;;
22138;SDS011;25815;52.582;13.408;2023-03-05T14:55:25;6.40;;;2.03;;
22138;SDS011;25815;52.582;13.408;2023-03-05T14:57:53;5.07;;;1.20;;
22138;SDS011;25815;52.582;13.408;2023-03-05T15:00:21;6.30;;;1.20;;
22138;SDS011;25815;52.582;13.408;2023-03-05T15:02:47;6.88;;;0.90;;
22138;SDS011;25815;52.582;13.408;2023-03-05T15:05:14;4.95;;;0.90;;
22138;SDS011;25815;52.582;13.408;2023-03-05T15:07:40;2.78;;;1.00;;
22138;SDS011;25815;52.582;13.408;2023-03-05T15:10:06;2.88;;;0.65;;
22138;SDS011;25815;52.582;13.408;2023-03-05T15:12:32;3.53;;;0.70;;
22138;SDS011;25815;52.582;13.408;2023-03-05T15:14:59;2.70;;;0.77;;
22138;SDS011;25815;52.582;13.408;2023-03-05T15:17:28;2.80;;;0.60;;
22138;SDS011;25815;52.582;13.408;2023-03-05T15:19:56;2.63;;;0.73;;
22138;SDS011;25815;52.582;13.408;2023-03-05T15:22:22;2.95;;;0.70;;
22138;SDS011;25815;52.582;13.408;2023-03-05T15:24:48;3.22;;;0.77;;
22138;SDS011;25815;52.582;13.408;2023-03-05T15:27:14;6.65;;;1.10;;
22138;SDS011;25815;52.582;13.408;2023-03-05T15:29:40;4.78;;;0.90;;
22138;SDS011;25815;52.582;13.408;2023-03-05T15:32:06;2.35;;;0.60;;
22138;SDS011;25815;52.582;13.408;2023-03-05T15:34:32;4.28;;;0.70;;
22138;SDS011;25815;52.582;13.408;2023-03-05T15:36:58;3.10;;;0.60;;
22138;SDS011;25815;52.582;13.408;2023-03-05T15:39:24;3.63;;;0.90;;
22138;SDS011;25815;52.582;13.408;2023-03-05T15:41:51;2.92;;;1.05;;
22138;SDS011;25815;52.582;13.408;2023-03-05T15:44:17;7.03;;;0.75;;
22138;SDS011;25815;52.582;13.408;2023-03-05T15:46:43;2.17;;;0.70;;
22138;SDS011;25815;52.582;13.408;2023-03-05T15:49:09;2.85;;;0.95;;